Time;durP1;ratioP1;P1;durP2;ratioP2;P2;SDS_P1;SDS_P2;PMS_P1;PMS_P2;Temp;Humidity;BMP_temperature;BMP_pressure;BME280_temperature;BME280_humidity;BME280_pressure;Samples;Min_cycle;Max_cycle;Signal;HPM_P1;HPM_P2
2023/04/09 00:00:15;;;;;;;;;;;;;;;12.58;50.89;95306.00;5030005;28;20388;-66
2023/04/09 00:02:42;;;;;;;;;;;;;;;12.55;51.25;95306.50;5029353;28;20410;-66
2023/04/09 00:05:09;;;;;;;;;;;;;;;12.29;51.48;95310.88;5029317;28;20376;-65
2023/04/09 00:07:35;;;;;;;;;;;;;;;12.40;51.48;95309.88;5028001;28;19976;-65
2023/04/09 00:10:02;;;;;;;;;;;;;;;12.34;51.07;95312.72;5029507;28;19929;-65
2023/04/09 00:12:29;;;;;;;;;;;;;;;12.56;51.40;95314.13;5029809;28;19925;-66
2023/04/09 00:14:56;;;;;;;;;;;;;;;12.46;51.36;95310.69;5029295;28;19994;-67
2023/04/09 00:17:23;;;;;;;;;;;;;;;12.07;51.96;95310.22;5029319;28;19929;-65
2023/04/09 00:19:51;;;;;;;;;;;;;;;11.91;52.00;95319.06;5029704;28;19929;-65
2023/04/09 00:22:17;;;;;;;;;;;;;;;12.03;52.46;95319.63;5029294;28;19991;-65
2023/04/09 00:24:44;;;;;;;;;;;;;;;12.25;51.73;95317.66;5028946;28;20027;-65
2023/04/09 00:27:11;;;;;;;;;;;;;;;12.23;51.69;95325.00;5028902;28;19939;-65
2023/04/09 00:29:38;;;;;;;;;;;;;;;12.38;50.80;95321.66;5028021;28;19929;-65
2023/04/09 00:32:05;;;;;;;;;;;;;;;12.43;51.37;95321.69;5029038;28;19936;-67
2023/04/09 00:34:32;;;;;;;;;;;;;;;12.36;51.14;95321.94;5027871;28;19940;-66
2023/04/09 00:36:59;;;;;;;;;;;;;;;12.43;51.71;95319.84;5027603;28;19929;-67
2023/04/09 00:39:26;;;;;;;;;;;;;;;12.52;51.06;95318.31;5061208;28;20020;-65
2023/04/09 00:41:57;;;;;;;;;;;;;;;12.47;51.37;95313.03;5028898;28;19991;-65
2023/04/09 00:44:24;;;;;;;;;;;;;;;12.43;51.28;95317.22;5028949;28;19929;-66
2023/04/09 00:46:51;;;;;;;;;;;;;;;12.51;51.43;95316.75;5028510;28;19925;-65
2023/04/09 00:49:18;;;;;;;;;;;;;;;12.43;51.58;95317.22;5027841;28;19935;-66
2023/04/09 00:51:46;;;;;;;;;;;;;;;12.28;51.78;95309.25;5027442;28;19925;-67
2023/04/09 00:54:13;;;;;;;;;;;;;;;12.25;51.79;95315.03;5028909;28;20002;-66
2023/04/09 00:56:41;;;;;;;;;;;;;;;12.44;50.89;95308.31;5060390;28;19925;-66
2023/04/09 00:59:07;;;;;;;;;;;;;;;12.45;50.73;95311.72;5027658;28;20048;-66
2023/04/09 01:01:34;;;;;;;;;;;;;;;12.26;51.17;95306.13;5028281;28;19979;-65
2023/04/09 01:04:01;;;;;;;;;;;;;;;12.03;51.80;95309.13;5029138;28;20592;-67
2023/04/09 01:06:37;;;;;;;;;;;;;;;12.19;51.51;95316.84;5028483;28;19933;-65
2023/04/09 01:09:09;;;;;;;;;;;;;;;12.20;51.75;95307.13;5048867;28;19929;-66
2023/04/09 01:11:40;;;;;;;;;;;;;;;12.10;51.50;95313.13;5060211;28;20035;-67
2023/04/09 01:14:13;;;;;;;;;;;;;;;12.19;51.34;95321.31;5060666;28;19979;-67
2023/04/09 01:16:43;;;;;;;;;;;;;;;12.37;50.79;95320.09;5028170;28;19968;-65
2023/04/09 01:19:31;;;;;;;;;;;;;;;12.34;50.44;95321.38;5027509;28;19925;-67
2023/04/09 01:21:58;;;;;;;;;;;;;;;12.48;50.17;95322.50;5016813;28;20381;-65
2023/04/09 01:24:27;;;;;;;;;;;;;;;12.60;50.45;95319.66;5028881;28;19952;-65
2023/04/09 01:27:07;;;;;;;;;;;;;;;12.51;50.59;95319.38;5028110;28;20419;-65
2023/04/09 01:30:08;;;;;;;;;;;;;;;12.37;50.97;95318.25;5027994;28;20308;-66
2023/04/09 01:32:36;;;;;;;;;;;;;;;12.37;51.09;95323.50;5028187;28;19996;-66
2023/04/09 01:35:03;;;;;;;;;;;;;;;11.90;51.74;95327.94;5028626;28;19944;-65
2023/04/09 01:37:30;;;;;;;;;;;;;;;12.13;51.52;95332.84;5028696;28;19951;-64
2023/04/09 01:39:57;;;;;;;;;;;;;;;12.12;51.52;95328.63;5032422;28;20377;-65
2023/04/09 01:42:25;;;;;;;;;;;;;;;12.30;50.95;95325.56;5031255;28;20662;-65
2023/04/09 01:44:52;;;;;;;;;;;;;;;12.28;50.73;95322.41;5030931;28;20415;-66
2023/04/09 01:47:20;;;;;;;;;;;;;;;12.39;50.48;95324.03;5032294;28;19929;-65
2023/04/09 01:49:47;;;;;;;;;;;;;;;12.34;51.00;95324.00;5030932;28;19925;-65
2023/04/09 01:52:14;;;;;;;;;;;;;;;12.56;50.00;95332.53;5063588;28;20278;-65
2023/04/09 01:54:41;;;;;;;;;;;;;;;12.45;50.77;95330.91;5032063;28;19936;-65
2023/04/09 01:57:08;;;;;;;;;;;;;;;12.48;50.17;95329.63;5030755;28;19937;-65
2023/04/09 01:59:35;;;;;;;;;;;;;;;12.50;50.21;95323.03;5047012;28;19936;-64
2023/04/09 02:02:11;;;;;;;;;;;;;;;12.44;50.95;95318.81;5063470;28;19925;-66
2023/04/09 02:04:45;;;;;;;;;;;;;;;12.28;51.01;95325.03;5032265;28;20301;-66
2023/04/09 02:07:24;;;;;;;;;;;;;;;12.32;50.68;95320.84;5031479;28;19931;-66
2023/04/09 02:09:52;;;;;;;;;;;;;;;12.28;50.58;95326.88;5031732;28;19929;-66
2023/04/09 02:12:19;;;;;;;;;;;;;;;12.34;50.15;95318.75;5030181;28;19925;-66
2023/04/09 02:14:50;;;;;;;;;;;;;;;12.43;50.00;95327.75;5029979;28;19937;-66
2023/04/09 02:17:17;;;;;;;;;;;;;;;12.33;49.88;95321.66;5031235;28;19929;-66
2023/04/09 02:19:45;;;;;;;;;;;;;;;12.38;50.01;95319.84;5063408;28;19965;-65
2023/04/09 02:22:13;;;;;;;;;;;;;;;12.29;50.06;95325.81;5029952;28;19933;-65
2023/04/09 02:24:40;;;;;;;;;;;;;;;12.15;50.51;95328.13;5031652;28;19987;-67
2023/04/09 02:27:07;;;;;;;;;;;;;;;12.23;50.20;95317.13;5030248;28;19929;-66
2023/04/09 02:29:34;;;;;;;;;;;;;;;12.33;49.49;95317.19;5031520;28;19983;-66
2023/04/09 02:32:01;;;;;;;;;;;;;;;12.26;49.56;95321.88;5030965;28;19925;-66
2023/04/09 02:34:27;;;;;;;;;;;;;;;12.26;50.00;95321.88;5031331;28;19976;-65
2023/04/09 02:36:55;;;;;;;;;;;;;;;12.35;49.35;95323.00;5029697;28;19925;-65
2023/04/09 02:39:21;;;;;;;;;;;;;;;12.20;49.71;95317.66;5031664;28;20110;-65
2023/04/09 02:41:48;;;;;;;;;;;;;;;12.08;49.60;95325.72;5031214;28;19983;-66
2023/04/09 02:44:15;;;;;;;;;;;;;;;12.07;49.77;95316.25;5031366;28;19929;-67
2023/04/09 02:46:43;;;;;;;;;;;;;;;12.05;50.27;95325.44;5029501;28;19936;-67
2023/04/09 02:49:10;;;;;;;;;;;;;;;12.07;50.16;95323.34;5029401;28;19928;-66
2023/04/09 02:51:36;;;;;;;;;;;;;;;12.17;50.20;95318.16;5030786;28;19961;-65
2023/04/09 02:54:03;;;;;;;;;;;;;;;12.08;49.77;95311.78;5031228;28;20032;-66
2023/04/09 02:56:30;;;;;;;;;;;;;;;12.13;49.49;95311.84;5029318;28;19972;-65
2023/04/09 02:58:57;;;;;;;;;;;;;;;12.11;49.78;95316.53;5031121;28;19929;-66
2023/04/09 03:01:24;;;;;;;;;;;;;;;12.07;49.74;95318.09;5062261;28;20796;-65
2023/04/09 03:03:51;;;;;;;;;;;;;;;12.05;50.13;95313.09;5062714;28;20324;-66
2023/04/09 03:06:18;;;;;;;;;;;;;;;12.06;49.63;95311.28;5062613;28;20375;-65
2023/04/09 03:08:44;;;;;;;;;;;;;;;12.05;50.01;95309.66;5031438;28;19952;-64
2023/04/09 03:11:11;;;;;;;;;;;;;;;12.04;49.94;95308.09;5062623;28;19933;-66
2023/04/09 03:13:38;;;;;;;;;;;;;;;11.81;50.40;95313.72;5030316;28;19929;-66
2023/04/09 03:16:06;;;;;;;;;;;;;;;11.86;50.25;95316.41;5030211;28;19929;-65
2023/04/09 03:18:33;;;;;;;;;;;;;;;11.80;50.33;95314.78;5030634;28;19990;-65
2023/04/09 03:21:03;;;;;;;;;;;;;;;11.92;50.12;95310.13;5030800;28;19929;-66
2023/04/09 03:23:33;;;;;;;;;;;;;;;11.88;49.96;95314.28;5062303;28;19929;-66
2023/04/09 03:26:04;;;;;;;;;;;;;;;11.95;50.20;95314.88;5028934;28;20396;-66
2023/04/09 03:28:42;;;;;;;;;;;;;;;11.90;49.78;95320.06;5028787;28;19929;-66
2023/04/09 03:31:08;;;;;;;;;;;;;;;11.79;50.40;95313.16;5029552;28;20693;-65
2023/04/09 03:33:38;;;;;;;;;;;;;;;11.84;50.00;95321.09;5062152;28;20347;-64
2023/04/09 03:36:05;;;;;;;;;;;;;;;11.67;50.77;95323.06;5029887;28;19929;-65
2023/04/09 03:38:45;;;;;;;;;;;;;;;11.65;50.98;95319.91;5028777;28;20482;-66
2023/04/09 03:41:24;;;;;;;;;;;;;;;11.69;50.51;95324.41;5058421;28;19929;-65
2023/04/09 03:43:52;;;;;;;;;;;;;;;11.76;50.13;95316.31;5028736;28;20020;-65
2023/04/09 03:46:24;;;;;;;;;;;;;;;11.80;50.23;95317.41;5061589;28;20031;-66
2023/04/09 03:48:50;;;;;;;;;;;;;;;11.72;50.54;95321.28;5028930;28;19929;-65
2023/04/09 03:51:18;;;;;;;;;;;;;;;11.86;50.11;95321.66;5027968;28;19932;-65
2023/04/09 03:53:51;;;;;;;;;;;;;;;11.73;50.43;95322.84;5062223;28;20016;-65
2023/04/09 03:56:18;;;;;;;;;;;;;;;11.72;50.71;95323.09;5058895;28;19933;-67
2023/04/09 03:58:47;;;;;;;;;;;;;;;11.78;50.65;95327.34;5028427;28;20628;-66
2023/04/09 04:01:15;;;;;;;;;;;;;;;11.66;50.60;95329.38;5028744;28;20000;-66
2023/04/09 04:03:54;;;;;;;;;;;;;;;11.72;50.13;95330.97;5045283;28;19947;-66
2023/04/09 04:06:23;;;;;;;;;;;;;;;11.61;50.69;95329.28;5028177;28;19987;-68
2023/04/09 04:09:10;;;;;;;;;;;;;;;11.61;50.99;95329.28;5029135;28;20351;-65
2023/04/09 04:11:49;;;;;;;;;;;;;;;11.71;50.65;95329.41;5028219;28;19925;-67
2023/04/09 04:14:18;;;;;;;;;;;;;;;11.67;50.89;95338.81;5028389;28;19928;-66
2023/04/09 04:16:50;;;;;;;;;;;;;;;11.72;50.23;95330.97;5044674;28;20011;-65
2023/04/09 04:19:20;;;;;;;;;;;;;;;11.74;50.70;95334.16;5028684;28;19933;-65
2023/04/09 04:21:50;;;;;;;;;;;;;;;11.82;50.64;95325.81;5032304;28;20020;-66
2023/04/09 04:24:16;;;;;;;;;;;;;;;11.75;50.83;95333.13;5031451;28;19936;-67
2023/04/09 04:26:43;;;;;;;;;;;;;;;11.74;50.64;95334.16;5060838;28;19940;-65
2023/04/09 04:29:13;;;;;;;;;;;;;;;11.77;50.62;95336.28;5028111;28;20012;-66
2023/04/09 04:31:49;;;;;;;;;;;;;;;11.65;51.23;95343.53;5060953;28;19925;-66
2023/04/09 04:34:19;;;;;;;;;;;;;;;11.67;51.32;95338.81;5028225;28;19929;-66
2023/04/09 04:36:53;;;;;;;;;;;;;;;11.49;51.75;95347.84;5027803;28;19950;-66
2023/04/09 04:39:20;;;;;;;;;;;;;;;11.74;51.59;95337.56;5027431;28;19925;-62
2023/04/09 04:41:53;;;;;;;;;;;;;;;11.80;51.33;95341.03;5023919;28;19939;-63
2023/04/09 04:44:24;;;;;;;;;;;;;;;11.89;51.10;95345.56;5058644;28;19939;-63
2023/04/09 04:46:58;;;;;;;;;;;;;;;12.06;50.74;95340.16;5025821;28;19929;-64
2023/04/09 04:49:25;;;;;;;;;;;;;;;11.73;52.11;95335.19;5059425;28;20338;-63
2023/04/09 04:51:51;;;;;;;;;;;;;;;12.00;51.42;95343.78;5026213;28;19933;-63
2023/04/09 04:54:18;;;;;;;;;;;;;;;12.06;51.42;95348.03;5026352;28;20985;-61
2023/04/09 04:56:49;;;;;;;;;;;;;;;12.09;50.85;95342.28;5006993;28;20400;-62
2023/04/09 04:59:40;;;;;;;;;;;;;;;12.11;51.35;95346.25;5032799;28;19929;-63
2023/04/09 05:02:09;;;;;;;;;;;;;;;12.15;51.37;95352.53;5058887;28;19925;-64
2023/04/09 05:04:56;;;;;;;;;;;;;;;12.10;51.75;95349.09;5025460;28;19925;-62
2023/04/09 05:07:32;;;;;;;;;;;;;;;12.19;51.91;95360.72;5028124;28;19925;-66
2023/04/09 05:09:59;;;;;;;;;;;;;;;12.20;51.29;95355.22;5027081;28;19957;-64
2023/04/09 05:12:31;;;;;;;;;;;;;;;12.20;51.74;95357.06;5024967;28;19931;-64
2023/04/09 05:15:00;;;;;;;;;;;;;;;12.44;51.36;95346.94;5025302;28;19929;-62
2023/04/09 05:17:27;;;;;;;;;;;;;;;12.03;52.34;95353.78;5042314;28;19949;-62
2023/04/09 05:19:55;;;;;;;;;;;;;;;11.97;52.41;95354.81;5024622;28;20787;-63
2023/04/09 05:22:30;;;;;;;;;;;;;;;12.30;51.66;95362.34;5037715;28;19983;-62
2023/04/09 05:24:57;;;;;;;;;;;;;;;12.38;51.39;95345.31;5025554;28;19933;-64
2023/04/09 05:27:26;;;;;;;;;;;;;;;12.35;51.23;95357.16;5025306;28;19933;-63
2023/04/09 05:29:58;;;;;;;;;;;;;;;12.65;50.68;95357.28;5024868;28;20028;-63
2023/04/09 05:32:27;;;;;;;;;;;;;;;12.56;50.89;95355.41;5031133;28;20424;-63
2023/04/09 05:34:54;;;;;;;;;;;;;;;12.66;50.21;95351.00;5025567;28;19940;-64
2023/04/09 05:37:22;;;;;;;;;;;;;;;12.76;50.42;95351.03;5024182;28;19929;-61
2023/04/09 05:39:51;;;;;;;;;;;;;;;12.60;50.78;95352.00;5040658;28;20331;-64
2023/04/09 05:42:18;;;;;;;;;;;;;;;12.55;50.89;95346.75;5058558;28;20340;-62
2023/04/09 05:45:04;;;;;;;;;;;;;;;12.65;50.75;95356.50;5026603;28;19925;-64
2023/04/09 05:47:31;;;;;;;;;;;;;;;12.71;50.56;95352.84;5024355;28;20480;-63
2023/04/09 05:50:03;;;;;;;;;;;;;;;12.45;50.91;95357.19;5025990;28;20387;-63
2023/04/09 05:52:30;;;;;;;;;;;;;;;12.79;50.11;95358.38;5059380;28;19925;-65
2023/04/09 05:54:57;;;;;;;;;;;;;;;12.68;50.00;95351.50;5027673;28;20020;-64
2023/04/09 05:57:36;;;;;;;;;;;;;;;12.85;50.03;95357.38;5034153;28;20312;-68
2023/04/09 06:00:03;;;;;;;;;;;;;;;12.69;49.97;95358.38;5060028;28;19929;-64
2023/04/09 06:02:41;;;;;;;;;;;;;;;12.81;49.41;95356.28;5024436;28;19929;-63
2023/04/09 06:05:09;;;;;;;;;;;;;;;12.99;49.31;95357.69;5034537;28;19925;-62
2023/04/09 06:07:35;;;;;;;;;;;;;;;13.15;48.51;95352.25;5025223;28;20339;-64
2023/04/09 06:10:02;;;;;;;;;;;;;;;13.04;48.41;95353.25;5043024;28;20028;-64
2023/04/09 06:12:29;;;;;;;;;;;;;;;13.25;48.22;95350.69;5029279;28;19929;-62
2023/04/09 06:14:56;;;;;;;;;;;;;;;13.29;49.10;95347.25;5025534;28;20033;-65
2023/04/09 06:17:23;;;;;;;;;;;;;;;13.44;48.35;95354.38;5027324;28;19994;-64
2023/04/09 06:19:49;;;;;;;;;;;;;;;13.14;49.29;95358.53;5027479;28;19925;-63
2023/04/09 06:22:16;;;;;;;;;;;;;;;13.34;49.05;95359.66;5032556;28;19928;-65
2023/04/09 06:24:43;;;;;;;;;;;;;;;13.48;48.67;95358.06;5032967;28;19929;-65
2023/04/09 06:27:10;;;;;;;;;;;;;;;13.33;48.52;95360.69;5029366;28;19964;-65
2023/04/09 06:29:36;;;;;;;;;;;;;;;13.27;48.49;95348.56;5030509;28;20499;-63
2023/04/09 06:32:04;;;;;;;;;;;;;;;13.17;48.39;95352.75;5030930;28;19972;-65
2023/04/09 06:34:31;;;;;;;;;;;;;;;13.48;47.98;95355.44;5029466;28;19929;-65
2023/04/09 06:36:58;;;;;;;;;;;;;;;13.03;47.79;95359.56;5030892;28;19933;-64
2023/04/09 06:39:25;;;;;;;;;;;;;;;12.89;48.70;95363.69;5030869;28;19936;-64
2023/04/09 06:41:52;;;;;;;;;;;;;;;13.01;48.82;95360.84;5021334;28;20048;-65
2023/04/09 06:44:32;;;;;;;;;;;;;;;13.16;48.67;95364.34;5045535;28;19929;-63
2023/04/09 06:47:01;;;;;;;;;;;;;;;13.56;47.79;95353.06;5030925;28;19925;-65
2023/04/09 06:49:27;;;;;;;;;;;;;;;13.62;47.27;95367.03;5030350;28;19976;-63
2023/04/09 06:51:55;;;;;;;;;;;;;;;13.58;47.34;95368.59;5030798;28;19957;-63
2023/04/09 06:54:21;;;;;;;;;;;;;;;13.70;47.07;95364.69;5028928;28;19937;-66
2023/04/09 06:56:48;;;;;;;;;;;;;;;13.73;46.96;95366.78;5029835;28;20284;-66
2023/04/09 06:59:15;;;;;;;;;;;;;;;13.61;47.50;95368.09;5028311;28;19929;-67
2023/04/09 07:01:42;;;;;;;;;;;;;;;13.89;47.09;95367.56;5017086;28;19933;-66
2023/04/09 07:04:09;;;;;;;;;;;;;;;13.78;46.77;95365.97;5030392;28;20047;-65
2023/04/09 07:06:36;;;;;;;;;;;;;;;13.78;46.94;95373.88;5029205;28;20366;-68
2023/04/09 07:09:03;;;;;;;;;;;;;;;14.04;46.82;95357.03;5029614;28;20020;-68
2023/04/09 07:11:30;;;;;;;;;;;;;;;13.88;46.99;95366.00;5029384;28;19968;-65
2023/04/09 07:13:57;;;;;;;;;;;;;;;14.03;46.46;95363.38;5061576;28;20672;-67
2023/04/09 07:16:24;;;;;;;;;;;;;;;13.97;46.35;95362.56;5029019;28;19960;-66
2023/04/09 07:18:51;;;;;;;;;;;;;;;14.05;45.38;95366.53;5029360;28;20384;-65
2023/04/09 07:21:18;;;;;;;;;;;;;;;13.62;45.23;95374.94;5028137;28;20060;-64
2023/04/09 07:23:45;;;;;;;;;;;;;;;13.88;45.02;95366.00;5029875;28;20021;-63
2023/04/09 07:26:12;;;;;;;;;;;;;;;13.20;44.85;95369.88;5029389;28;19925;-66
2023/04/09 07:28:41;;;;;;;;;;;;;;;13.87;45.65;95377.56;5029784;28;19972;-71
2023/04/09 07:31:08;;;;;;;;;;;;;;;14.28;45.37;95376.53;5016767;28;19936;-67
2023/04/09 07:33:35;;;;;;;;;;;;;;;14.10;44.27;95369.16;5028379;28;19933;-64
2023/04/09 07:36:02;;;;;;;;;;;;;;;14.30;45.73;95374.44;5029476;28;19926;-66
2023/04/09 07:38:29;;;;;;;;;;;;;;;14.26;44.20;95375.97;5028740;28;20358;-66
2023/04/09 07:40:55;;;;;;;;;;;;;;;14.44;44.05;95374.63;5027627;28;20375;-67
2023/04/09 07:43:22;;;;;;;;;;;;;;;14.21;43.99;95386.53;5028851;28;19932;-66
2023/04/09 07:45:51;;;;;;;;;;;;;;;13.93;43.74;95379.97;5029449;28;19929;-67
2023/04/09 07:48:18;;;;;;;;;;;;;;;14.00;43.30;95384.94;5028763;28;19968;-67
2023/04/09 07:50:45;;;;;;;;;;;;;;;14.10;42.15;95379.69;5029928;28;19965;-68
2023/04/09 07:53:12;;;;;;;;;;;;;;;14.74;41.92;95375.38;5028467;28;20027;-69
2023/04/09 07:55:39;;;;;;;;;;;;;;;14.63;42.58;95392.28;5028890;28;20347;-69
2023/04/09 07:58:06;;;;;;;;;;;;;;;14.46;42.34;95389.16;5028592;28;20295;-67
2023/04/09 08:00:33;;;;;;;;;;;;;;;14.44;42.56;95385.19;5027240;28;20038;-67
2023/04/09 08:03:00;;;;;;;;;;;;;;;14.22;42.51;95388.09;5019748;28;19948;-68
2023/04/09 08:05:27;;;;;;;;;;;;;;;14.02;43.07;95391.53;5033920;28;19999;-71
2023/04/09 08:08:13;;;;;;;;;;;;;;;14.07;42.94;95396.00;5041181;28;19932;-72
2023/04/09 08:10:40;;;;;;;;;;;;;;;13.91;43.13;95407.59;5035315;28;19955;-65
2023/04/09 08:13:07;;;;;;;;;;;;;;;13.87;43.91;95401.28;5035228;28;19928;-67
2023/04/09 08:15:37;;;;;;;;;;;;;;;13.72;43.50;95401.28;5042262;28;19929;-66
2023/04/09 08:18:04;;;;;;;;;;;;;;;14.12;43.99;95399.44;5048005;28;20596;-66
2023/04/09 08:20:32;;;;;;;;;;;;;;;14.13;43.81;95410.78;5015759;28;20388;-71
2023/04/09 08:22:58;;;;;;;;;;;;;;;14.19;43.49;95399.19;5029067;28;19929;-69
2023/04/09 08:25:25;;;;;;;;;;;;;;;14.56;42.95;95402.31;5036640;28;19925;-73
2023/04/09 08:27:52;;;;;;;;;;;;;;;14.44;42.21;95409.72;5015739;28;19933;-73
2023/04/09 08:30:20;;;;;;;;;;;;;;;14.31;42.46;95405.00;5037900;28;20435;-68
2023/04/09 08:32:47;;;;;;;;;;;;;;;14.57;42.86;95401.25;5026033;28;19950;-69
2023/04/09 08:35:15;;;;;;;;;;;;;;;14.42;42.33;95405.75;5026074;28;19929;-70
2023/04/09 08:37:44;;;;;;;;;;;;;;;14.46;42.05;95399.69;5028029;28;19936;-66
2023/04/09 08:40:11;;;;;;;;;;;;;;;14.42;42.41;95403.91;5028013;28;19991;-70
2023/04/09 08:42:44;;;;;;;;;;;;;;;14.56;41.93;95402.31;5028388;28;19929;-73
2023/04/09 08:45:11;;;;;;;;;;;;;;;14.54;41.38;95396.53;5026477;28;20462;-72
2023/04/09 08:47:40;;;;;;;;;;;;;;;14.53;41.46;95389.66;5026840;28;19932;-70
2023/04/09 08:50:07;;;;;;;;;;;;;;;14.38;41.53;95396.81;5026706;28;20291;-74
2023/04/09 08:52:35;;;;;;;;;;;;;;;14.78;41.90;95386.94;5027941;28;19925;-69
2023/04/09 08:55:02;;;;;;;;;;;;;;;14.76;41.83;95383.78;5027838;28;20020;-70
2023/04/09 08:57:29;;;;;;;;;;;;;;;14.85;41.71;95394.59;5028424;28;19929;-70
2023/04/09 08:59:57;;;;;;;;;;;;;;;15.06;42.09;95388.94;5030332;28;19925;-69
2023/04/09 09:02:24;;;;;;;;;;;;;;;15.17;42.10;95382.56;5032530;28;20028;-67
2023/04/09 09:04:53;;;;;;;;;;;;;;;14.76;41.72;95383.78;5021771;28;19932;-69
2023/04/09 09:07:20;;;;;;;;;;;;;;;14.98;41.29;95376.31;5025609;28;20328;-70
2023/04/09 09:09:54;;;;;;;;;;;;;;;15.00;41.28;95381.31;5027551;28;20028;-69
2023/04/09 09:12:31;;;;;;;;;;;;;;;15.10;41.81;95376.00;5033264;28;19932;-71
2023/04/09 09:14:58;;;;;;;;;;;;;;;14.42;41.50;95367.00;5027666;28;19956;-68
2023/04/09 09:17:25;;;;;;;;;;;;;;;14.52;41.80;95377.53;5037274;28;19995;-68
2023/04/09 09:19:52;;;;;;;;;;;;;;;14.63;41.70;95363.28;5011321;28;19936;-69
2023/04/09 09:22:19;;;;;;;;;;;;;;;14.54;41.82;95361.44;5023213;28;19936;-65
2023/04/09 09:24:50;;;;;;;;;;;;;;;14.95;41.17;95370.78;5026779;28;19929;-69
2023/04/09 09:27:42;;;;;;;;;;;;;;;15.14;41.28;95369.91;5028416;28;19992;-67
2023/04/09 09:30:19;;;;;;;;;;;;;;;14.60;41.83;95369.06;5027673;28;20438;-67
2023/04/09 09:32:45;;;;;;;;;;;;;;;14.50;42.25;95358.56;5059454;28;19926;-67
2023/04/09 09:35:16;;;;;;;;;;;;;;;14.82;41.51;95355.53;5027434;28;20355;-69
2023/04/09 09:37:43;;;;;;;;;;;;;;;14.63;42.63;95346.66;5026842;28;19936;-71
2023/04/09 09:40:28;;;;;;;;;;;;;;;14.77;41.44;95345.81;5026984;28;19929;-72
2023/04/09 09:42:56;;;;;;;;;;;;;;;14.69;41.35;95351.63;5026383;28;19937;-65
2023/04/09 09:45:24;;;;;;;;;;;;;;;15.25;41.47;95350.31;5028185;28;20537;-73
2023/04/09 09:47:51;;;;;;;;;;;;;;;15.10;41.00;95334.56;5030809;28;20384;-69
2023/04/09 09:50:21;;;;;;;;;;;;;;;15.54;41.37;95336.44;5026619;28;19995;-70
2023/04/09 09:52:49;;;;;;;;;;;;;;;16.20;40.32;95337.47;5026773;28;20020;-70
2023/04/09 09:55:17;;;;;;;;;;;;;;;15.33;40.20;95334.97;5027447;28;19925;-66
2023/04/09 09:57:46;;;;;;;;;;;;;;;15.39;40.52;95336.50;5027000;28;20020;-67
2023/04/09 10:00:13;;;;;;;;;;;;;;;15.63;39.47;95329.50;5031239;28;19929;-68
2023/04/09 10:02:43;;;;;;;;;;;;;;;15.96;39.51;95333.97;5030563;28;19987;-62
2023/04/09 10:05:10;;;;;;;;;;;;;;;16.04;39.63;95328.06;5030681;28;19937;-64
2023/04/09 10:07:38;;;;;;;;;;;;;;;16.48;39.48;95325.28;5032428;28;20394;-64
2023/04/09 10:10:06;;;;;;;;;;;;;;;15.93;37.98;95324.75;5030436;28;19932;-65
2023/04/09 10:12:34;;;;;;;;;;;;;;;16.47;38.27;95307.81;5030469;28;19983;-68
2023/04/09 10:15:03;;;;;;;;;;;;;;;15.29;38.53;95326.78;5030901;28;19929;-72
2023/04/09 10:17:31;;;;;;;;;;;;;;;15.84;38.62;95320.31;5030867;28;20001;-68
2023/04/09 10:20:21;;;;;;;;;;;;;;;15.98;38.55;95310.72;5030875;28;19933;-67
2023/04/09 10:22:50;;;;;;;;;;;;;;;16.93;38.16;95301.72;5025640;28;19933;-67
2023/04/09 10:25:37;;;;;;;;;;;;;;;16.32;37.52;95306.13;5028098;28;19933;-70
2023/04/09 10:28:13;;;;;;;;;;;;;;;16.82;37.74;95300.25;5037521;28;20015;-70
2023/04/09 10:30:40;;;;;;;;;;;;;;;16.70;36.33;95315.78;5038787;28;19925;-66
2023/04/09 10:33:14;;;;;;;;;;;;;;;16.56;36.87;95306.97;5029332;28;19925;-72
2023/04/09 10:35:41;;;;;;;;;;;;;;;15.98;37.24;95310.72;5029714;28;20362;-72
2023/04/09 10:38:13;;;;;;;;;;;;;;;16.23;37.49;95307.81;5033252;28;20048;-66
2023/04/09 10:40:46;;;;;;;;;;;;;;;15.99;37.54;95297.22;5041488;28;19951;-69
2023/04/09 10:43:18;;;;;;;;;;;;;;;16.09;37.99;95285.75;5030499;28;20445;-74
2023/04/09 10:45:52;;;;;;;;;;;;;;;16.60;36.71;95289.44;5030354;28;19929;-65
2023/04/09 10:48:20;;;;;;;;;;;;;;;16.68;36.36;95288.81;5072078;28;19947;-64
2023/04/09 10:50:49;;;;;;;;;;;;;;;16.58;36.57;95278.38;5027883;28;19940;-64
2023/04/09 10:53:23;;;;;;;;;;;;;;;16.07;36.62;95282.59;5030200;28;20013;-64
2023/04/09 10:55:50;;;;;;;;;;;;;;;16.58;36.36;95278.38;5017104;28;20312;-64
2023/04/09 10:58:17;;;;;;;;;;;;;;;16.98;36.00;95272.56;5028821;28;19929;-65
2023/04/09 11:00:46;;;;;;;;;;;;;;;16.59;36.40;95269.34;5030382;28;19928;-62
2023/04/09 11:03:26;;;;;;;;;;;;;;;16.03;37.07;95271.00;5026218;28;20318;-68
2023/04/09 11:05:58;;;;;;;;;;;;;;;16.12;36.68;95264.84;5025322;28;20546;-62
2023/04/09 11:08:27;;;;;;;;;;;;;;;15.75;37.25;95266.50;5025862;28;19925;-63
2023/04/09 11:10:57;;;;;;;;;;;;;;;15.92;37.10;95266.88;5028865;28;19929;-65
2023/04/09 11:13:24;;;;;;;;;;;;;;;16.15;36.34;95258.19;5029443;28;20707;-64
2023/04/09 11:15:50;;;;;;;;;;;;;;;16.44;36.02;95261.56;5028765;28;19925;-61
2023/04/09 11:18:21;;;;;;;;;;;;;;;16.27;36.53;95260.44;5044037;28;19929;-64
2023/04/09 11:20:48;;;;;;;;;;;;;;;16.17;37.71;95256.84;5027720;28;19929;-65
2023/04/09 11:23:15;;;;;;;;;;;;;;;16.56;37.49;95253.25;5025653;28;20270;-63
2023/04/09 11:25:42;;;;;;;;;;;;;;;16.73;37.02;95254.34;5025299;28;20629;-64
2023/04/09 11:28:08;;;;;;;;;;;;;;;16.85;36.77;95254.72;5032362;28;19975;-64
2023/04/09 11:30:36;;;;;;;;;;;;;;;16.54;35.57;95250.09;5034362;28;20183;-62
2023/04/09 11:33:03;;;;;;;;;;;;;;;16.25;35.94;95252.78;5028687;28;19925;-62
2023/04/09 11:35:32;;;;;;;;;;;;;;;16.17;35.51;95245.47;5030677;28;19929;-65
2023/04/09 11:37:59;;;;;;;;;;;;;;;15.77;36.13;95248.53;5025180;28;19935;-65
2023/04/09 11:40:28;;;;;;;;;;;;;;;15.97;36.87;95237.75;5029408;28;19976;-64
2023/04/09 11:42:55;;;;;;;;;;;;;;;16.23;36.27;95241.72;5037642;28;20425;-65
2023/04/09 11:45:24;;;;;;;;;;;;;;;16.36;35.47;95238.38;5046657;28;19929;-63
2023/04/09 11:47:50;;;;;;;;;;;;;;;16.61;35.09;95239.94;5037676;28;20047;-64
2023/04/09 11:50:18;;;;;;;;;;;;;;;16.12;34.01;95238.41;5049331;28;20347;-63
2023/04/09 11:52:45;;;;;;;;;;;;;;;16.55;33.50;95231.28;5045468;28;19995;-64
2023/04/09 11:55:21;;;;;;;;;;;;;;;16.74;33.39;95226.81;5026574;28;20001;-64
2023/04/09 11:57:50;;;;;;;;;;;;;;;16.89;33.69;95220.53;5029688;28;19932;-63
2023/04/09 12:00:17;;;;;;;;;;;;;;;17.04;34.01;95222.97;5025690;28;20031;-65
2023/04/09 12:02:45;;;;;;;;;;;;;;;16.25;32.86;95221.06;5024400;28;19933;-63
2023/04/09 12:05:20;;;;;;;;;;;;;;;16.78;32.39;95219.88;5030220;28;19936;-65
2023/04/09 12:07:47;;;;;;;;;;;;;;;17.06;31.85;95218.16;5025902;28;20411;-64
2023/04/09 12:10:25;;;;;;;;;;;;;;;16.89;31.14;95216.03;5027221;28;19933;-65
2023/04/09 12:12:51;;;;;;;;;;;;;;;17.38;31.62;95212.91;5028476;28;20016;-65
2023/04/09 12:15:20;;;;;;;;;;;;;;;17.60;31.54;95205.13;5021421;28;19933;-67
2023/04/09 12:17:52;;;;;;;;;;;;;;;17.54;30.84;95205.50;5025063;28;20312;-65
2023/04/09 12:20:28;;;;;;;;;;;;;;;17.26;30.74;95203.81;5027019;28;19937;-64
2023/04/09 12:22:56;;;;;;;;;;;;;;;17.23;30.47;95205.97;5037031;28;19948;-64
2023/04/09 12:25:23;;;;;;;;;;;;;;;17.48;30.25;95201.38;5033927;28;20503;-65
2023/04/09 12:27:50;;;;;;;;;;;;;;;17.89;30.44;95196.94;5028439;28;19932;-63
2023/04/09 12:30:17;;;;;;;;;;;;;;;17.90;29.72;95201.16;5037956;28;20035;-64
2023/04/09 12:32:44;;;;;;;;;;;;;;;17.53;29.28;95194.13;5041181;28;19929;-64
2023/04/09 12:35:12;;;;;;;;;;;;;;;17.66;30.17;95195.22;5032706;28;20381;-66
2023/04/09 12:37:39;;;;;;;;;;;;;;;17.73;30.30;95187.69;5035686;28;19928;-65
2023/04/09 12:40:06;;;;;;;;;;;;;;;17.27;30.49;95194.78;5048123;28;20047;-68
2023/04/09 12:42:33;;;;;;;;;;;;;;;16.71;31.72;95203.59;5029207;28;19929;-66
2023/04/09 12:45:00;;;;;;;;;;;;;;;16.89;31.47;95205.44;5044093;28;20380;-63
2023/04/09 12:47:26;;;;;;;;;;;;;;;16.73;32.00;95190.81;5040775;28;19933;-65
2023/04/09 12:49:53;;;;;;;;;;;;;;;16.29;32.87;95190.34;5046695;28;20410;-67
2023/04/09 12:52:21;;;;;;;;;;;;;;;17.21;32.90;95186.94;5042499;28;19925;-68
2023/04/09 12:54:48;;;;;;;;;;;;;;;17.62;32.29;95183.63;5041290;28;19929;-66
2023/04/09 12:57:15;;;;;;;;;;;;;;;17.34;32.27;95187.25;5036477;28;19968;-65